Lake Desolation, New York
Current Conditions -  °F | °C
As of 9:15 PM on Friday 24 Oct 2014 (Local Time) from KNY0 Reporting Station
Clear Clear  
Wind Chill: 42°   Ceiling: Unl
Heat Index: 46°   Visibility: 10mi
Dew Point: 40°   Wind: 6mph
Humidity: 80%   Direction: 270°W
Pressure: 29.87"   Gusts: NA
Location:  43.1097°N, 74.0176°W
Report Text: KNY0 250115Z AUTO 27005KT 10SM CLR 08/04 A2987 RMK AO2 T00750042
Loading
Personal Weather Stations






























Interactive Weather Map
Tropical Storm Tracking
New forecast layout! Learn more

10-Day Weather Forecast

Advertisements
Track Severe Weather on mobile